createdAt,value
2019-01-19T00:00:36.465Z,7.70
2019-01-19T00:03:28.230Z,7.57
2019-01-19T00:06:26.591Z,7.97
2019-01-19T00:09:13.298Z,8.37
2019-01-19T00:12:12.624Z,8.67
2019-01-19T00:15:05.718Z,8.00
2019-01-19T00:18:33.854Z,7.53
2019-01-19T00:21:30.805Z,7.77
2019-01-19T00:24:12.742Z,7.27
2019-01-19T00:27:22.313Z,8.47
2019-01-19T00:30:14.224Z,8.43
2019-01-19T00:33:32.090Z,8.23
2019-01-19T00:36:24.303Z,9.00
2019-01-19T00:39:30.271Z,8.70
2019-01-19T00:42:44.554Z,8.87
2019-01-19T00:45:41.281Z,9.30
2019-01-19T00:48:36.393Z,8.77
2019-01-19T00:51:47.102Z,8.33
2019-01-19T00:54:23.970Z,7.40
2019-01-19T00:57:24.027Z,7.70
2019-01-19T00:59:57.799Z,8.83
2019-01-19T01:02:51.828Z,8.10
2019-01-19T01:05:38.515Z,8.53
2019-01-19T01:08:49.850Z,9.07
2019-01-19T01:11:50.304Z,7.97
2019-01-19T01:14:54.768Z,8.57
2019-01-19T01:17:40.551Z,8.70
2019-01-19T01:20:48.304Z,8.43
2019-01-19T01:23:50.348Z,9.03
2019-01-19T01:27:24.594Z,7.97
2019-01-19T01:30:49.113Z,8.40
2019-01-19T01:33:40.376Z,8.67
2019-01-19T01:36:29.126Z,7.87
2019-01-19T01:39:57.051Z,9.67
2019-01-19T01:42:53.214Z,8.97
2019-01-19T01:45:38.541Z,9.40
2019-01-19T01:48:45.006Z,9.70
2019-01-19T01:51:35.974Z,9.80
2019-01-19T01:54:36.813Z,10.27
2019-01-19T01:57:22.611Z,10.93
2019-01-19T02:00:31.803Z,11.30
2019-01-19T02:03:43.582Z,10.77
2019-01-19T02:06:55.702Z,10.40
2019-01-19T02:09:51.747Z,11.40
2019-01-19T02:12:51.969Z,11.33
2019-01-19T02:15:40.529Z,10.73
2019-01-19T02:18:19.213Z,11.57
2019-01-19T02:21:24.768Z,11.63
2019-01-19T02:24:29.962Z,10.77
2019-01-19T02:27:23.631Z,10.87
2019-01-19T02:30:34.112Z,11.03
2019-01-19T02:33:30.139Z,9.63
2019-01-19T02:36:15.625Z,11.03
2019-01-19T02:38:55.100Z,10.47
2019-01-19T02:42:11.168Z,10.20
2019-01-19T02:45:08.282Z,10.77
2019-01-19T02:48:04.105Z,9.50
2019-01-19T02:50:50.799Z,9.90
2019-01-19T02:53:46.985Z,9.83
2019-01-19T02:56:39.923Z,9.13
2019-01-19T03:00:01.686Z,8.73
2019-01-19T03:02:54.170Z,8.90
2019-01-19T03:05:36.246Z,9.57
2019-01-19T03:09:04.313Z,7.80
2019-01-19T03:12:14.020Z,6.83
2019-01-19T03:15:16.140Z,7.70
2019-01-19T03:18:37.899Z,7.17
2019-01-19T03:21:42.512Z,7.70
2019-01-19T03:24:38.475Z,6.77
2019-01-19T03:27:52.787Z,7.13
2019-01-19T03:31:01.349Z,7.17
2019-01-19T03:34:05.563Z,6.60
2019-01-19T03:37:03.676Z,6.67
2019-01-19T03:39:57.914Z,5.70
2019-01-19T03:43:17.335Z,6.37
2019-01-19T03:46:20.024Z,6.53
2019-01-19T03:49:38.798Z,6.40
2019-01-19T03:52:30.473Z,6.73
2019-01-19T03:55:16.853Z,6.40
2019-01-19T03:58:10.929Z,6.57
2019-01-19T04:00:59.777Z,6.33
2019-01-19T04:03:47.502Z,6.30
2019-01-19T04:06:52.956Z,6.83
2019-01-19T04:10:05.663Z,6.70
2019-01-19T04:13:14.170Z,6.60
2019-01-19T04:16:23.269Z,6.07
2019-01-19T04:19:01.129Z,6.87
2019-01-19T04:22:02.330Z,6.80
2019-01-19T04:24:59.753Z,6.43
2019-01-19T04:27:28.707Z,6.80
2019-01-19T04:29:57.651Z,7.00
2019-01-19T04:32:26.726Z,6.83
2019-01-19T04:34:55.691Z,7.07
2019-01-19T04:37:24.541Z,7.30
2019-01-19T04:39:53.370Z,7.30
2019-01-19T04:42:22.404Z,8.23
2019-01-19T04:44:51.267Z,6.90
2019-01-19T04:47:20.225Z,7.40
2019-01-19T04:49:49.120Z,7.17
2019-01-19T04:52:17.922Z,6.93
2019-01-19T04:54:48.405Z,7.73
2019-01-19T04:57:17.286Z,7.87
2019-01-19T04:59:46.173Z,6.77
2019-01-19T05:02:15.015Z,7.67
2019-01-19T05:04:43.883Z,7.77
2019-01-19T05:07:12.652Z,7.67
2019-01-19T05:09:41.536Z,8.07
2019-01-19T05:12:10.413Z,8.87
2019-01-19T05:14:39.282Z,9.03
2019-01-19T05:17:08.062Z,8.53
2019-01-19T05:19:37.006Z,8.30
2019-01-19T05:22:05.860Z,8.53
2019-01-19T05:24:34.810Z,8.40
2019-01-19T05:27:03.708Z,8.37
2019-01-19T05:29:32.557Z,9.50
2019-01-19T05:32:01.488Z,9.00
2019-01-19T05:34:30.375Z,9.30
2019-01-19T05:36:59.221Z,9.30
2019-01-19T05:39:28.085Z,9.43
2019-01-19T05:41:56.956Z,9.77
2019-01-19T05:44:25.727Z,9.13
2019-01-19T05:46:54.601Z,10.00
2019-01-19T05:49:23.526Z,10.63
2019-01-19T05:51:52.582Z,11.03
2019-01-19T05:54:21.510Z,10.87
2019-01-19T05:56:50.479Z,11.50
2019-01-19T05:59:19.355Z,12.47
2019-01-19T06:01:48.198Z,13.10
2019-01-19T06:04:17.122Z,13.47
2019-01-19T06:06:46.994Z,12.87
2019-01-19T06:09:16.196Z,13.17
2019-01-19T06:11:45.063Z,13.63
2019-01-19T06:14:14.029Z,14.00
2019-01-19T06:16:43.000Z,13.83
2019-01-19T06:19:12.274Z,14.27
2019-01-19T06:22:00.161Z,14.07
2019-01-19T06:24:29.049Z,14.13
2019-01-19T06:26:57.966Z,14.57
2019-01-19T06:29:26.870Z,14.20
2019-01-19T06:31:55.826Z,15.07
2019-01-19T06:34:24.619Z,14.57
2019-01-19T06:36:55.002Z,14.17
2019-01-19T06:39:24.145Z,15.07
2019-01-19T06:41:53.030Z,14.40
2019-01-19T06:44:21.944Z,14.67
2019-01-19T06:46:50.850Z,14.17
2019-01-19T06:49:19.708Z,14.83
2019-01-19T06:51:48.590Z,15.27
2019-01-19T06:54:17.772Z,14.93
2019-01-19T06:56:46.532Z,15.20
2019-01-19T06:59:17.449Z,14.77
2019-01-19T07:01:46.072Z,15.03
2019-01-19T07:04:14.914Z,16.53
2019-01-19T07:06:43.827Z,16.17
2019-01-19T07:09:12.747Z,16.20
2019-01-19T07:11:41.677Z,15.13
2019-01-19T07:14:10.625Z,17.20
2019-01-19T07:16:39.469Z,17.00
2019-01-19T07:19:08.473Z,15.93
2019-01-19T07:21:37.350Z,15.87
2019-01-19T07:24:06.266Z,15.43
2019-01-19T07:26:35.226Z,16.70
2019-01-19T07:29:04.198Z,16.67
2019-01-19T07:31:33.194Z,16.60
2019-01-19T07:34:02.186Z,16.87
2019-01-19T07:36:31.090Z,16.57
2019-01-19T07:39:00.102Z,16.87
2019-01-19T07:41:29.026Z,16.30
2019-01-19T07:43:57.912Z,17.20
2019-01-19T07:46:27.385Z,16.03
2019-01-19T07:48:56.312Z,17.40
2019-01-19T07:51:25.752Z,16.30
2019-01-19T07:53:54.645Z,15.90
2019-01-19T07:56:24.891Z,17.67
2019-01-19T07:58:53.778Z,16.80
2019-01-19T08:01:22.694Z,17.00
2019-01-19T08:03:51.662Z,16.50
2019-01-19T08:06:20.534Z,15.80
2019-01-19T08:08:49.335Z,15.90
2019-01-19T08:11:18.280Z,17.30
2019-01-19T08:13:47.128Z,17.07
2019-01-19T08:16:15.998Z,16.33
2019-01-19T08:18:44.927Z,17.53
2019-01-19T08:21:13.819Z,17.27
2019-01-19T08:23:42.724Z,18.63
2019-01-19T08:26:11.640Z,18.37
2019-01-19T08:28:40.538Z,17.57
2019-01-19T08:31:09.386Z,17.37
2019-01-19T08:33:38.275Z,18.77
2019-01-19T08:36:07.198Z,18.50
2019-01-19T08:38:36.152Z,19.33
2019-01-19T08:41:05.200Z,18.70
2019-01-19T08:43:54.920Z,18.50
2019-01-19T08:46:23.851Z,19.30
2019-01-19T08:48:52.833Z,17.90
2019-01-19T08:51:21.710Z,18.30
2019-01-19T08:53:50.718Z,17.77
2019-01-19T08:56:19.694Z,16.87
2019-01-19T08:58:48.675Z,18.70
2019-01-19T09:01:17.590Z,17.97
2019-01-19T09:03:46.403Z,18.17
2019-01-19T09:06:15.393Z,19.27
2019-01-19T09:08:44.254Z,18.90
2019-01-19T09:11:13.243Z,19.10
2019-01-19T09:13:42.136Z,20.10
2019-01-19T09:16:13.299Z,20.40
2019-01-19T09:18:42.201Z,20.93
2019-01-19T09:21:11.166Z,21.13
2019-01-19T09:23:46.491Z,20.13
2019-01-19T09:26:15.415Z,19.37
2019-01-19T09:28:44.390Z,21.40
2019-01-19T09:31:13.290Z,19.77
2019-01-19T09:33:42.397Z,19.87
2019-01-19T09:36:11.482Z,21.77
2019-01-19T09:38:40.369Z,19.83
2019-01-19T09:41:09.259Z,23.50
2019-01-19T09:43:38.207Z,21.33
2019-01-19T09:46:07.206Z,21.20
2019-01-19T09:48:36.159Z,20.90
2019-01-19T09:51:05.311Z,21.43
2019-01-19T09:53:33.286Z,21.07
2019-01-19T09:56:02.238Z,22.40
2019-01-19T09:58:31.877Z,21.53
2019-01-19T10:01:00.848Z,22.43
2019-01-19T10:03:29.770Z,20.40
2019-01-19T10:05:58.716Z,21.00
2019-01-19T10:08:27.689Z,21.53
2019-01-19T10:10:56.927Z,21.47
2019-01-19T10:13:25.854Z,21.57
2019-01-19T10:15:54.783Z,21.10
2019-01-19T10:18:24.083Z,21.10
2019-01-19T10:20:52.989Z,21.33
2019-01-19T10:23:21.947Z,21.07
2019-01-19T10:25:50.915Z,21.83
2019-01-19T10:28:19.837Z,20.83
2019-01-19T10:30:48.789Z,19.93
2019-01-19T10:33:19.299Z,18.90
2019-01-19T10:35:48.291Z,20.33
2019-01-19T10:38:17.175Z,20.23
2019-01-19T10:40:46.168Z,18.93
2019-01-19T10:43:15.109Z,19.77
2019-01-19T10:45:44.345Z,19.77
2019-01-19T10:48:13.319Z,19.17
2019-01-19T10:50:42.255Z,20.13
2019-01-19T10:53:11.268Z,20.70
2019-01-19T10:55:40.245Z,19.03
2019-01-19T10:58:09.256Z,19.10
2019-01-19T11:00:38.297Z,17.90
2019-01-19T11:03:07.261Z,16.10
2019-01-19T11:05:36.275Z,18.47
2019-01-19T11:08:07.344Z,17.70
2019-01-19T11:10:36.330Z,17.40
2019-01-19T11:13:05.322Z,17.57
2019-01-19T11:15:34.314Z,18.43
2019-01-19T11:18:09.436Z,17.43
2019-01-19T11:20:38.329Z,17.83
2019-01-19T11:23:07.384Z,16.37
2019-01-19T11:25:36.371Z,17.67
2019-01-19T11:28:05.546Z,17.20
2019-01-19T11:30:34.607Z,16.27
2019-01-19T11:33:03.603Z,15.33
2019-01-19T11:35:32.587Z,15.07
2019-01-19T11:38:03.224Z,15.20
2019-01-19T11:40:37.154Z,15.20
2019-01-19T11:43:07.474Z,16.60
2019-01-19T11:45:36.604Z,16.47
2019-01-19T11:48:06.311Z,17.00
2019-01-19T11:50:35.321Z,13.70
2019-01-19T11:53:04.425Z,15.90
2019-01-19T11:55:33.428Z,14.40
2019-01-19T11:58:04.019Z,18.97
2019-01-19T12:00:34.657Z,17.17
2019-01-19T12:03:03.753Z,16.63
2019-01-19T12:05:32.635Z,16.53
2019-01-19T12:08:02.680Z,16.80
2019-01-19T12:10:31.714Z,16.50
2019-01-19T12:13:00.721Z,13.80
2019-01-19T12:15:29.768Z,15.57
2019-01-19T12:17:58.804Z,16.33
2019-01-19T12:20:39.198Z,13.57
2019-01-19T12:23:08.715Z,14.00
2019-01-19T12:25:38.334Z,13.13
2019-01-19T12:28:07.422Z,11.37
2019-01-19T12:30:36.539Z,12.23
2019-01-19T12:33:05.972Z,12.43
2019-01-19T12:35:35.021Z,11.60
2019-01-19T12:38:04.243Z,12.43
2019-01-19T12:40:33.370Z,13.93
2019-01-19T12:43:05.591Z,12.83
2019-01-19T12:45:40.632Z,12.63
2019-01-19T12:48:09.722Z,12.60
2019-01-19T12:50:39.419Z,12.73
2019-01-19T12:53:08.513Z,12.10
2019-01-19T12:55:38.156Z,12.40
2019-01-19T12:58:08.824Z,13.47
2019-01-19T13:00:38.692Z,13.10
2019-01-19T13:03:08.278Z,13.00
2019-01-19T13:05:40.620Z,13.13
2019-01-19T13:08:11.564Z,12.70
2019-01-19T13:10:54.093Z,14.33
2019-01-19T13:13:27.699Z,12.20
2019-01-19T13:16:23.832Z,12.20
2019-01-19T13:19:35.025Z,13.63
2019-01-19T13:22:48.164Z,11.67
2019-01-19T13:26:04.097Z,13.37
2019-01-19T13:29:08.432Z,13.07
2019-01-19T13:32:04.771Z,13.13
2019-01-19T13:35:35.652Z,15.97
2019-01-19T13:38:47.520Z,19.63
2019-01-19T13:42:05.549Z,16.17
2019-01-19T13:45:00.289Z,17.43
2019-01-19T13:48:06.323Z,14.23
2019-01-19T13:51:02.241Z,15.17
2019-01-19T13:53:52.300Z,24.07
2019-01-19T13:57:17.693Z,24.30
2019-01-19T14:00:26.375Z,15.77
2019-01-19T14:03:29.120Z,15.77
2019-01-19T14:06:20.583Z,15.03
2019-01-19T14:09:45.544Z,18.13
2019-01-19T14:12:59.699Z,14.03
2019-01-19T14:16:08.826Z,27.40
2019-01-19T14:19:13.984Z,17.00
2019-01-19T14:22:27.244Z,17.37
2019-01-19T14:25:40.702Z,20.40
2019-01-19T14:28:41.432Z,20.20
2019-01-19T14:31:52.885Z,21.47
2019-01-19T14:34:56.445Z,16.37
2019-01-19T14:37:57.670Z,19.73
2019-01-19T14:41:13.388Z,25.50
2019-01-19T14:44:25.852Z,24.20
2019-01-19T14:47:44.882Z,22.27
2019-01-19T14:50:38.754Z,19.03
2019-01-19T14:53:32.205Z,21.87
2019-01-19T14:56:46.810Z,16.63
2019-01-19T14:59:46.762Z,19.10
2019-01-19T15:03:00.131Z,17.83
2019-01-19T15:06:00.477Z,15.77
2019-01-19T15:09:28.717Z,17.03
2019-01-19T15:12:22.582Z,22.03
2019-01-19T15:15:00.832Z,16.60
2019-01-19T15:18:05.556Z,17.93
2019-01-19T15:20:44.926Z,20.00
2019-01-19T15:23:38.459Z,16.63
2019-01-19T15:26:33.530Z,19.83
2019-01-19T15:29:24.296Z,16.93
2019-01-19T15:32:24.151Z,17.70
2019-01-19T15:35:28.490Z,20.00
2019-01-19T15:38:36.376Z,23.87
2019-01-19T15:41:50.443Z,21.17
2019-01-19T15:44:57.781Z,44.50
2019-01-19T15:48:02.569Z,31.73
2019-01-19T15:51:04.196Z,21.90
2019-01-19T15:54:09.524Z,21.67
2019-01-19T15:56:55.330Z,24.93
2019-01-19T16:00:14.212Z,19.80
2019-01-19T16:03:20.543Z,25.70
2019-01-19T16:06:33.517Z,35.77
2019-01-19T16:09:26.456Z,38.17
2019-01-19T16:12:35.733Z,32.10
2019-01-19T16:15:42.186Z,24.43
2019-01-19T16:18:56.433Z,25.43
2019-01-19T16:21:48.080Z,22.37
2019-01-19T16:24:23.426Z,19.73
2019-01-19T16:27:29.268Z,20.73
2019-01-19T16:30:30.755Z,22.93
2019-01-19T16:33:21.614Z,26.33
2019-01-19T16:35:57.935Z,26.13
2019-01-19T16:39:26.121Z,21.33
2019-01-19T16:42:12.548Z,20.03
2019-01-19T16:45:20.958Z,20.43
2019-01-19T16:48:25.752Z,16.73
2019-01-19T16:51:30.650Z,22.50
2019-01-19T16:54:25.313Z,25.40
2019-01-19T16:57:22.279Z,21.10
2019-01-19T17:00:27.825Z,28.33
2019-01-19T17:03:38.652Z,31.30
2019-01-19T17:06:23.615Z,20.57
2019-01-19T17:09:33.102Z,29.87
2019-01-19T17:12:53.788Z,35.83
2019-01-19T17:15:41.471Z,23.70
2019-01-19T17:18:34.868Z,22.40
2019-01-19T17:21:55.969Z,18.50
2019-01-19T17:25:13.835Z,24.27
2019-01-19T17:28:24.122Z,22.20
2019-01-19T17:31:36.071Z,29.30
2019-01-19T17:34:29.646Z,19.73
2019-01-19T17:37:20.093Z,20.50
2019-01-19T17:40:29.430Z,26.83
2019-01-19T17:43:33.503Z,32.90
2019-01-19T17:46:52.608Z,19.83
2019-01-19T17:49:52.828Z,18.60
2019-01-19T17:53:11.857Z,24.60
2019-01-19T17:56:22.956Z,25.70
2019-01-19T17:59:14.160Z,28.03
2019-01-19T18:02:22.921Z,33.50
2019-01-19T18:05:13.508Z,26.80
2019-01-19T18:08:32.473Z,27.53
2019-01-19T18:11:50.263Z,22.33
2019-01-19T18:14:55.757Z,31.30
2019-01-19T18:18:09.854Z,23.50
2019-01-19T18:21:16.569Z,33.27
2019-01-19T18:24:33.200Z,32.90
2019-01-19T18:27:32.002Z,28.67
2019-01-19T18:30:40.864Z,41.53
2019-01-19T18:33:36.373Z,31.43
2019-01-19T18:36:30.006Z,38.27
2019-01-19T18:39:24.896Z,37.00
2019-01-19T18:42:41.386Z,38.87
2019-01-19T18:45:57.897Z,34.43
2019-01-19T18:49:06.886Z,30.63
2019-01-19T18:52:21.989Z,36.07
2019-01-19T18:55:34.849Z,38.47
2019-01-19T18:58:34.294Z,33.17
2019-01-19T19:01:31.292Z,27.63
2019-01-19T19:04:24.979Z,34.90
2019-01-19T19:07:27.925Z,38.23
2019-01-19T19:10:18.861Z,37.73
2019-01-19T19:13:13.493Z,29.27
2019-01-19T19:16:01.389Z,45.03
2019-01-19T19:19:05.871Z,38.73
2019-01-19T19:22:07.041Z,37.37
2019-01-19T19:25:13.450Z,37.67
2019-01-19T19:27:57.013Z,38.13
2019-01-19T19:31:04.795Z,27.03
2019-01-19T19:33:58.630Z,40.27
2019-01-19T19:36:50.849Z,25.30
2019-01-19T19:39:37.023Z,19.43
2019-01-19T19:42:35.263Z,19.70
2019-01-19T19:45:35.878Z,22.83
2019-01-19T19:48:14.215Z,20.80
2019-01-19T19:51:25.936Z,35.20
2019-01-19T19:53:54.907Z,27.83
2019-01-19T19:56:22.391Z,36.33
2019-01-19T19:58:51.394Z,28.93
2019-01-19T20:01:20.451Z,22.87
2019-01-19T20:03:49.509Z,20.83
2019-01-19T20:06:18.456Z,21.73
2019-01-19T20:08:47.553Z,24.67
2019-01-19T20:11:17.550Z,31.27
2019-01-19T20:13:46.644Z,38.73
2019-01-19T20:16:15.640Z,38.87
2019-01-19T20:18:44.617Z,33.67
2019-01-19T20:21:13.653Z,36.43
2019-01-19T20:23:42.608Z,25.70
2019-01-19T20:26:11.679Z,39.63
2019-01-19T20:28:40.731Z,31.87
2019-01-19T20:31:09.756Z,32.10
2019-01-19T20:33:38.767Z,32.17
2019-01-19T20:36:07.698Z,35.27
2019-01-19T20:38:36.635Z,35.53
2019-01-19T20:41:05.651Z,38.40
2019-01-19T20:43:34.696Z,35.97
2019-01-19T20:46:03.683Z,31.40
2019-01-19T20:48:32.727Z,28.67
2019-01-19T20:51:01.683Z,23.67
2019-01-19T20:53:30.711Z,21.53
2019-01-19T20:55:59.632Z,22.63
2019-01-19T20:58:28.621Z,21.60
2019-01-19T21:00:57.682Z,23.90
2019-01-19T21:03:26.611Z,24.67
2019-01-19T21:05:55.646Z,23.53
2019-01-19T21:08:24.607Z,24.73
2019-01-19T21:10:53.612Z,23.40
2019-01-19T21:13:22.611Z,21.73
2019-01-19T21:15:51.593Z,22.07
2019-01-19T21:18:20.604Z,23.20
2019-01-19T21:20:49.552Z,22.83
2019-01-19T21:23:18.514Z,26.93
2019-01-19T21:25:47.588Z,25.47
2019-01-19T21:28:16.609Z,23.07
2019-01-19T21:30:45.692Z,23.00
2019-01-19T21:33:14.871Z,23.50
2019-01-19T21:35:43.914Z,22.57
2019-01-19T21:38:12.963Z,22.03
2019-01-19T21:40:41.880Z,22.73
2019-01-19T21:43:10.720Z,22.50
2019-01-19T21:45:39.819Z,21.83
2019-01-19T21:48:08.808Z,23.67
2019-01-19T21:50:37.893Z,20.70
2019-01-19T21:53:07.124Z,21.77
2019-01-19T21:55:36.084Z,20.93
2019-01-19T21:58:05.408Z,20.13
2019-01-19T22:00:34.384Z,20.27
2019-01-19T22:03:03.440Z,20.33
2019-01-19T22:05:32.666Z,21.23
2019-01-19T22:08:01.676Z,22.03
2019-01-19T22:10:30.696Z,21.07
2019-01-19T22:12:59.810Z,20.40
2019-01-19T22:15:28.761Z,21.93
2019-01-19T22:17:58.155Z,21.13
2019-01-19T22:20:27.158Z,21.87
2019-01-19T22:22:56.129Z,20.70
2019-01-19T22:25:25.118Z,21.50
2019-01-19T22:27:54.137Z,20.63
2019-01-19T22:30:24.664Z,21.73
2019-01-19T22:32:55.462Z,20.83
2019-01-19T22:35:27.119Z,20.57
2019-01-19T22:37:56.056Z,21.17
2019-01-19T22:40:24.965Z,20.10
2019-01-19T22:42:59.163Z,21.33
2019-01-19T22:45:28.072Z,19.80
2019-01-19T22:47:56.964Z,20.87
2019-01-19T22:50:25.967Z,23.37
2019-01-19T22:52:54.971Z,23.40
2019-01-19T22:55:23.919Z,22.33
2019-01-19T22:57:52.962Z,24.07
2019-01-19T23:01:17.570Z,23.63
2019-01-19T23:03:46.604Z,23.67
2019-01-19T23:06:15.658Z,23.27
2019-01-19T23:08:44.692Z,22.47
2019-01-19T23:11:13.754Z,22.13
2019-01-19T23:13:42.877Z,22.30
2019-01-19T23:16:11.942Z,21.67
2019-01-19T23:18:40.878Z,22.57
2019-01-19T23:21:09.827Z,23.40
2019-01-19T23:23:38.799Z,21.90
2019-01-19T23:26:07.893Z,23.17
2019-01-19T23:28:36.898Z,22.20
2019-01-19T23:31:05.871Z,22.47
2019-01-19T23:33:34.928Z,23.13
2019-01-19T23:36:03.934Z,20.80
2019-01-19T23:38:32.911Z,23.23
2019-01-19T23:41:08.688Z,25.60
2019-01-19T23:43:32.598Z,24.70
2019-01-19T23:46:01.576Z,26.30
2019-01-19T23:48:30.607Z,25.53
2019-01-19T23:50:59.562Z,23.97
2019-01-19T23:53:28.589Z,27.50
2019-01-19T23:55:57.555Z,36.23
2019-01-19T23:58:26.483Z,37.47
